sensor_id;sensor_type;location;lat;lon;timestamp;pressure;altitude;pressure_sealevel;temperature;humidity
17309;BME280;8772;42.804;23.426;2023-03-05T00:01:37;73801.44;;;-140.58;100.00
17309;BME280;8772;42.804;23.426;2023-03-05T00:04:07;73809.66;;;-140.58;100.00
17309;BME280;8772;42.804;23.426;2023-03-05T00:06:35;73824.03;;;-140.58;100.00
17309;BME280;8772;42.804;23.426;2023-03-05T00:09:02;73830.16;;;-140.58;100.00
17309;BME280;8772;42.804;23.426;2023-03-05T00:11:30;73838.38;;;-140.58;100.00
17309;BME280;8772;42.804;23.426;2023-03-05T00:13:59;73834.28;;;-140.58;100.00
17309;BME280;8772;42.804;23.426;2023-03-05T00:16:29;73834.28;;;-140.58;100.00
17309;BME280;8772;42.804;23.426;2023-03-05T00:18:57;73830.16;;;-140.58;100.00
17309;BME280;8772;42.804;23.426;2023-03-05T00:21:27;73846.59;;;-140.58;100.00
17309;BME280;8772;42.804;23.426;2023-03-05T00:23:56;73840.44;;;-140.58;100.00
17309;BME280;8772;42.804;23.426;2023-03-05T00:26:25;73834.28;;;-140.58;100.00
17309;BME280;8772;42.804;23.426;2023-03-05T00:28:53;73830.16;;;-140.58;100.00
17309;BME280;8772;42.804;23.426;2023-03-05T00:31:22;73830.16;;;-140.58;100.00
17309;BME280;8772;42.804;23.426;2023-03-05T00:33:52;73830.16;;;-140.58;100.00
17309;BME280;8772;42.804;23.426;2023-03-05T00:36:19;73826.06;;;-140.58;100.00
17309;BME280;8772;42.804;23.426;2023-03-05T00:38:46;73826.06;;;-140.58;100.00
17309;BME280;8772;42.804;23.426;2023-03-05T00:41:13;73824.03;;;-140.58;100.00
17309;BME280;8772;42.804;23.426;2023-03-05T00:43:40;73821.97;;;-140.58;100.00
17309;BME280;8772;42.804;23.426;2023-03-05T00:46:07;73824.03;;;-140.58;100.00
17309;BME280;8772;42.804;23.426;2023-03-05T00:48:34;73834.28;;;-140.58;100.00
17309;BME280;8772;42.804;23.426;2023-03-05T00:51:03;73836.31;;;-140.58;100.00
17309;BME280;8772;42.804;23.426;2023-03-05T00:53:30;73846.59;;;-140.58;100.00
17309;BME280;8772;42.804;23.426;2023-03-05T00:55:57;73842.47;;;-140.58;100.00
17309;BME280;8772;42.804;23.426;2023-03-05T00:58:24;73844.53;;;-140.58;100.00
17309;BME280;8772;42.804;23.426;2023-03-05T01:00:50;73854.78;;;-140.58;100.00
17309;BME280;8772;42.804;23.426;2023-03-05T01:06:37;73840.44;;;-140.58;100.00
17309;BME280;8772;42.804;23.426;2023-03-05T01:09:07;73846.59;;;-140.58;100.00
17309;BME280;8772;42.804;23.426;2023-03-05T01:11:34;73840.44;;;-140.58;100.00
17309;BME280;8772;42.804;23.426;2023-03-05T01:14:00;73846.59;;;-140.58;100.00
17309;BME280;8772;42.804;23.426;2023-03-05T01:16:27;73842.47;;;-140.58;100.00
17309;BME280;8772;42.804;23.426;2023-03-05T01:18:54;73834.28;;;-140.58;100.00
17309;BME280;8772;42.804;23.426;2023-03-05T01:21:21;73830.16;;;-140.58;100.00
17309;BME280;8772;42.804;23.426;2023-03-05T01:23:49;73840.44;;;-140.58;100.00
17309;BME280;8772;42.804;23.426;2023-03-05T01:26:16;73830.16;;;-140.58;100.00
17309;BME280;8772;42.804;23.426;2023-03-05T01:28:43;73830.16;;;-140.58;100.00
17309;BME280;8772;42.804;23.426;2023-03-05T01:31:10;73824.03;;;-140.58;100.00
17309;BME280;8772;42.804;23.426;2023-03-05T01:33:37;73834.28;;;-140.58;100.00
17309;BME280;8772;42.804;23.426;2023-03-05T01:36:06;73834.28;;;-140.58;100.00
17309;BME280;8772;42.804;23.426;2023-03-05T01:38:34;73821.97;;;-140.58;100.00
17309;BME280;8772;42.804;23.426;2023-03-05T01:41:03;73811.72;;;-140.58;100.00
17309;BME280;8772;42.804;23.426;2023-03-05T01:43:30;73834.28;;;-140.58;100.00
17309;BME280;8772;42.804;23.426;2023-03-05T01:46:26;73836.31;;;-140.58;100.00
17309;BME280;8772;42.804;23.426;2023-03-05T01:48:57;73836.31;;;-140.58;100.00
17309;BME280;8772;42.804;23.426;2023-03-05T01:51:28;73842.47;;;-140.58;100.00
17309;BME280;8772;42.804;23.426;2023-03-05T01:53:57;73830.16;;;-140.58;100.00
17309;BME280;8772;42.804;23.426;2023-03-05T01:56:28;73832.22;;;-140.58;100.00
17309;BME280;8772;42.804;23.426;2023-03-05T01:58:56;73830.16;;;-140.58;100.00
17309;BME280;8772;42.804;23.426;2023-03-05T02:01:30;73826.06;;;-140.58;100.00
17309;BME280;8772;42.804;23.426;2023-03-05T02:03:57;73826.06;;;-140.58;100.00
17309;BME280;8772;42.804;23.426;2023-03-05T02:06:24;73826.06;;;-140.58;100.00
17309;BME280;8772;42.804;23.426;2023-03-05T02:08:52;73821.97;;;-140.58;100.00
17309;BME280;8772;42.804;23.426;2023-03-05T02:11:19;73830.16;;;-140.58;100.00
17309;BME280;8772;42.804;23.426;2023-03-05T02:13:47;73828.13;;;-140.58;100.00
17309;BME280;8772;42.804;23.426;2023-03-05T02:16:14;73824.03;;;-140.58;100.00
17309;BME280;8772;42.804;23.426;2023-03-05T02:18:41;73830.16;;;-140.58;100.00
17309;BME280;8772;42.804;23.426;2023-03-05T02:21:09;73826.06;;;-140.58;100.00
17309;BME280;8772;42.804;23.426;2023-03-05T02:23:37;73836.31;;;-140.58;100.00
17309;BME280;8772;42.804;23.426;2023-03-05T02:26:06;73838.38;;;-140.58;100.00
17309;BME280;8772;42.804;23.426;2023-03-05T02:28:37;73830.16;;;-140.58;100.00
17309;BME280;8772;42.804;23.426;2023-03-05T02:31:08;73826.06;;;-140.58;100.00
17309;BME280;8772;42.804;23.426;2023-03-05T02:33:35;73828.13;;;-140.58;100.00
17309;BME280;8772;42.804;23.426;2023-03-05T02:36:03;73836.31;;;-140.58;100.00
17309;BME280;8772;42.804;23.426;2023-03-05T02:38:31;73844.53;;;-140.58;100.00
17309;BME280;8772;42.804;23.426;2023-03-05T02:40:59;73842.47;;;-140.58;100.00
17309;BME280;8772;42.804;23.426;2023-03-05T02:43:26;73852.75;;;-140.58;100.00
17309;BME280;8772;42.804;23.426;2023-03-05T02:45:52;73863.00;;;-140.58;100.00
17309;BME280;8772;42.804;23.426;2023-03-05T02:48:19;73865.03;;;-140.58;100.00
17309;BME280;8772;42.804;23.426;2023-03-05T02:50:47;73858.91;;;-140.58;100.00
17309;BME280;8772;42.804;23.426;2023-03-05T02:53:14;73871.19;;;-140.58;100.00
17309;BME280;8772;42.804;23.426;2023-03-05T02:55:45;73885.56;;;-140.58;100.00
17309;BME280;8772;42.804;23.426;2023-03-05T02:58:12;73883.50;;;-140.58;100.00
17309;BME280;8772;42.804;23.426;2023-03-05T03:00:39;73873.25;;;-140.58;100.00
17309;BME280;8772;42.804;23.426;2023-03-05T03:03:05;73879.41;;;-140.58;100.00
17309;BME280;8772;42.804;23.426;2023-03-05T03:05:33;73883.50;;;-140.58;100.00
17309;BME280;8772;42.804;23.426;2023-03-05T03:08:00;73875.31;;;-140.58;100.00
17309;BME280;8772;42.804;23.426;2023-03-05T03:10:27;73871.19;;;-140.58;100.00
17309;BME280;8772;42.804;23.426;2023-03-05T03:12:56;73871.19;;;-140.58;100.00
17309;BME280;8772;42.804;23.426;2023-03-05T03:15:23;73863.00;;;-140.58;100.00
17309;BME280;8772;42.804;23.426;2023-03-05T03:17:49;73867.09;;;-140.58;100.00
17309;BME280;8772;42.804;23.426;2023-03-05T03:20:17;73867.09;;;-140.58;100.00
17309;BME280;8772;42.804;23.426;2023-03-05T03:22:45;73858.91;;;-140.58;100.00
17309;BME280;8772;42.804;23.426;2023-03-05T03:25:13;73883.50;;;-140.58;100.00
17309;BME280;8772;42.804;23.426;2023-03-05T03:27:40;73877.34;;;-140.58;100.00
17309;BME280;8772;42.804;23.426;2023-03-05T03:30:10;73883.50;;;-140.58;100.00
17309;BME280;8772;42.804;23.426;2023-03-05T03:32:37;73875.31;;;-140.58;100.00
17309;BME280;8772;42.804;23.426;2023-03-05T03:35:05;73877.34;;;-140.58;100.00
17309;BME280;8772;42.804;23.426;2023-03-05T03:37:32;73891.72;;;-140.58;100.00
17309;BME280;8772;42.804;23.426;2023-03-05T03:39:59;73877.34;;;-140.58;100.00
17309;BME280;8772;42.804;23.426;2023-03-05T03:42:26;73871.19;;;-140.58;100.00
17309;BME280;8772;42.804;23.426;2023-03-05T03:44:53;73885.56;;;-140.58;100.00
17309;BME280;8772;42.804;23.426;2023-03-05T03:47:21;73875.31;;;-140.58;100.00
17309;BME280;8772;42.804;23.426;2023-03-05T03:49:48;73877.34;;;-140.58;100.00
17309;BME280;8772;42.804;23.426;2023-03-05T03:52:15;73881.47;;;-140.58;100.00
17309;BME280;8772;42.804;23.426;2023-03-05T03:54:41;73885.56;;;-140.58;100.00
17309;BME280;8772;42.804;23.426;2023-03-05T03:57:08;73875.31;;;-140.58;100.00
17309;BME280;8772;42.804;23.426;2023-03-05T03:59:35;73869.16;;;-140.58;100.00
17309;BME280;8772;42.804;23.426;2023-03-05T04:02:02;73871.19;;;-140.58;100.00
17309;BME280;8772;42.804;23.426;2023-03-05T04:04:30;73871.19;;;-140.58;100.00
17309;BME280;8772;42.804;23.426;2023-03-05T04:06:57;73865.03;;;-140.58;100.00
17309;BME280;8772;42.804;23.426;2023-03-05T04:09:24;73850.69;;;-140.58;100.00
17309;BME280;8772;42.804;23.426;2023-03-05T04:11:51;73854.78;;;-140.58;100.00
17309;BME280;8772;42.804;23.426;2023-03-05T04:14:18;73850.69;;;-140.58;100.00
17309;BME280;8772;42.804;23.426;2023-03-05T04:16:44;73856.84;;;-140.58;100.00
17309;BME280;8772;42.804;23.426;2023-03-05T04:19:11;73856.84;;;-140.58;100.00
17309;BME280;8772;42.804;23.426;2023-03-05T04:21:40;73850.69;;;-140.58;100.00
17309;BME280;8772;42.804;23.426;2023-03-05T04:24:07;73850.69;;;-140.58;100.00
17309;BME280;8772;42.804;23.426;2023-03-05T04:26:34;73854.78;;;-140.58;100.00
17309;BME280;8772;42.804;23.426;2023-03-05T04:29:01;73865.03;;;-140.58;100.00
17309;BME280;8772;42.804;23.426;2023-03-05T04:31:27;73863.00;;;-140.58;100.00
17309;BME280;8772;42.804;23.426;2023-03-05T04:33:54;73863.00;;;-140.58;100.00
17309;BME280;8772;42.804;23.426;2023-03-05T04:36:21;73863.00;;;-140.58;100.00
17309;BME280;8772;42.804;23.426;2023-03-05T04:38:50;73871.19;;;-140.58;100.00
17309;BME280;8772;42.804;23.426;2023-03-05T04:41:18;73879.41;;;-140.58;100.00
17309;BME280;8772;42.804;23.426;2023-03-05T04:43:44;73883.50;;;-140.58;100.00
17309;BME280;8772;42.804;23.426;2023-03-05T04:46:11;73883.50;;;-140.58;100.00
17309;BME280;8772;42.804;23.426;2023-03-05T04:48:38;73885.56;;;-140.58;100.00
17309;BME280;8772;42.804;23.426;2023-03-05T04:51:05;73887.63;;;-140.58;100.00
17309;BME280;8772;42.804;23.426;2023-03-05T04:53:32;73891.72;;;-140.58;100.00
17309;BME280;8772;42.804;23.426;2023-03-05T04:56:01;73895.81;;;-140.58;100.00
17309;BME280;8772;42.804;23.426;2023-03-05T04:58:29;73908.13;;;-140.58;100.00
17309;BME280;8772;42.804;23.426;2023-03-05T05:01:00;73920.44;;;-140.58;100.00
17309;BME280;8772;42.804;23.426;2023-03-05T05:03:27;73949.16;;;-140.58;100.00
17309;BME280;8772;42.804;23.426;2023-03-05T05:05:54;73965.56;;;-140.58;100.00
17309;BME280;8772;42.804;23.426;2023-03-05T05:08:21;73977.88;;;-140.58;100.00
17309;BME280;8772;42.804;23.426;2023-03-05T05:10:55;73977.88;;;-140.58;100.00
17309;BME280;8772;42.804;23.426;2023-03-05T05:13:24;73994.28;;;-140.58;100.00
17309;BME280;8772;42.804;23.426;2023-03-05T05:15:51;74002.50;;;-140.58;100.00
17309;BME280;8772;42.804;23.426;2023-03-05T05:18:18;74018.91;;;-140.58;100.00
17309;BME280;8772;42.804;23.426;2023-03-05T05:20:45;74029.16;;;-140.58;100.00
17309;BME280;8772;42.804;23.426;2023-03-05T05:23:12;74012.75;;;-140.58;100.00
17309;BME280;8772;42.804;23.426;2023-03-05T05:25:39;74023.00;;;-140.58;100.00
17309;BME280;8772;42.804;23.426;2023-03-05T05:28:08;74014.81;;;-140.58;100.00
17309;BME280;8772;42.804;23.426;2023-03-05T05:30:36;74039.44;;;-140.58;100.00
17309;BME280;8772;42.804;23.426;2023-03-05T05:33:03;74049.69;;;-140.58;100.00
17309;BME280;8772;42.804;23.426;2023-03-05T05:35:30;74066.09;;;-140.58;100.00
17309;BME280;8772;42.804;23.426;2023-03-05T05:37:57;74072.25;;;-140.58;100.00
17309;BME280;8772;42.804;23.426;2023-03-05T05:40:24;74059.94;;;-140.58;100.00
17309;BME280;8772;42.804;23.426;2023-03-05T05:42:51;74051.75;;;-140.58;100.00
17309;BME280;8772;42.804;23.426;2023-03-05T05:45:18;74043.53;;;-140.58;100.00
17309;BME280;8772;42.804;23.426;2023-03-05T05:47:46;74043.53;;;-140.58;100.00
17309;BME280;8772;42.804;23.426;2023-03-05T05:50:13;74045.59;;;-140.58;100.00
17309;BME280;8772;42.804;23.426;2023-03-05T05:52:41;74047.63;;;-140.58;100.00
17309;BME280;8772;42.804;23.426;2023-03-05T05:55:09;74035.31;;;-140.58;100.00
17309;BME280;8772;42.804;23.426;2023-03-05T05:57:36;74023.00;;;-140.58;100.00
17309;BME280;8772;42.804;23.426;2023-03-05T06:00:06;74008.66;;;-140.58;100.00
17309;BME280;8772;42.804;23.426;2023-03-05T06:02:36;73990.19;;;-140.58;100.00
17309;BME280;8772;42.804;23.426;2023-03-05T06:05:06;73977.88;;;-140.58;100.00
17309;BME280;8772;42.804;23.426;2023-03-05T06:07:35;73967.63;;;-140.58;100.00
17309;BME280;8772;42.804;23.426;2023-03-05T06:10:02;73949.16;;;-140.58;100.00
17309;BME280;8772;42.804;23.426;2023-03-05T06:12:29;73943.00;;;-140.58;100.00
17309;BME280;8772;42.804;23.426;2023-03-05T06:14:56;73934.81;;;-140.58;100.00
17309;BME280;8772;42.804;23.426;2023-03-05T06:17:23;73924.53;;;-140.58;100.00
17309;BME280;8772;42.804;23.426;2023-03-05T06:19:53;73912.22;;;-140.58;100.00
17309;BME280;8772;42.804;23.426;2023-03-05T06:22:21;73904.03;;;-140.58;100.00
17309;BME280;8772;42.804;23.426;2023-03-05T06:24:48;73891.72;;;-140.58;100.00
17309;BME280;8772;42.804;23.426;2023-03-05T06:27:15;73895.81;;;-140.58;100.00
17309;BME280;8772;42.804;23.426;2023-03-05T06:29:42;73879.41;;;-140.58;100.00
17309;BME280;8772;42.804;23.426;2023-03-05T06:32:09;73879.41;;;-140.58;100.00
17309;BME280;8772;42.804;23.426;2023-03-05T06:34:36;73869.16;;;-140.58;100.00
17309;BME280;8772;42.804;23.426;2023-03-05T06:37:02;73869.16;;;-140.58;100.00
17309;BME280;8772;42.804;23.426;2023-03-05T06:39:31;73850.69;;;-140.58;100.00
17309;BME280;8772;42.804;23.426;2023-03-05T06:41:57;73842.47;;;-140.58;100.00
17309;BME280;8772;42.804;23.426;2023-03-05T06:44:24;73832.22;;;-140.58;100.00
17309;BME280;8772;42.804;23.426;2023-03-05T06:46:51;73821.97;;;-140.58;100.00
17309;BME280;8772;42.804;23.426;2023-03-05T06:49:18;73813.75;;;-140.58;100.00
17309;BME280;8772;42.804;23.426;2023-03-05T06:51:45;73807.59;;;-140.58;100.00
17309;BME280;8772;42.804;23.426;2023-03-05T06:54:13;73793.25;;;-140.58;100.00
17309;BME280;8772;42.804;23.426;2023-03-05T06:56:44;73791.19;;;-140.58;100.00
17309;BME280;8772;42.804;23.426;2023-03-05T06:59:12;73776.84;;;-140.58;100.00
17309;BME280;8772;42.804;23.426;2023-03-05T07:01:39;73776.84;;;-140.58;100.00
17309;BME280;8772;42.804;23.426;2023-03-05T07:04:06;73772.72;;;-140.58;98.53
17309;BME280;8772;42.804;23.426;2023-03-05T07:06:35;73768.63;;;-140.58;99.73
17309;BME280;8772;42.804;23.426;2023-03-05T07:09:03;73764.53;;;-140.58;97.74
17309;BME280;8772;42.804;23.426;2023-03-05T07:11:30;73764.53;;;-140.58;96.86
17309;BME280;8772;42.804;23.426;2023-03-05T07:14:00;73756.31;;;-140.58;97.77
17309;BME280;8772;42.804;23.426;2023-03-05T07:16:29;73752.22;;;-140.58;94.16
17309;BME280;8772;42.804;23.426;2023-03-05T07:18:58;73756.31;;;-140.58;93.52
17309;BME280;8772;42.804;23.426;2023-03-05T07:21:29;73752.22;;;-140.58;94.11
17309;BME280;8772;42.804;23.426;2023-03-05T07:23:59;73750.16;;;-140.58;92.96
17309;BME280;8772;42.804;23.426;2023-03-05T07:26:27;73756.31;;;-140.58;90.52
17309;BME280;8772;42.804;23.426;2023-03-05T07:28:55;73752.22;;;-140.58;92.42
17309;BME280;8772;42.804;23.426;2023-03-05T07:31:25;73760.44;;;-140.58;90.43
17309;BME280;8772;42.804;23.426;2023-03-05T07:33:55;73760.44;;;-140.58;89.72
17309;BME280;8772;42.804;23.426;2023-03-05T07:36:23;73748.13;;;-140.58;87.63
17309;BME280;8772;42.804;23.426;2023-03-05T07:38:50;73752.22;;;-140.58;89.86
17309;BME280;8772;42.804;23.426;2023-03-05T07:41:18;73741.97;;;-140.58;88.03
17309;BME280;8772;42.804;23.426;2023-03-05T07:43:47;73746.06;;;-140.58;88.29
17309;BME280;8772;42.804;23.426;2023-03-05T07:46:16;73748.13;;;-140.58;85.62
17309;BME280;8772;42.804;23.426;2023-03-05T07:48:44;73744.00;;;-140.58;88.29
17309;BME280;8772;42.804;23.426;2023-03-05T07:51:13;73715.28;;;-140.58;89.16
17309;BME280;8772;42.804;23.426;2023-03-05T07:53:41;73707.09;;;-140.58;88.56
17309;BME280;8772;42.804;23.426;2023-03-05T07:56:09;73686.56;;;-140.58;86.42
17309;BME280;8772;42.804;23.426;2023-03-05T07:58:36;73670.16;;;-140.58;81.98
17309;BME280;8772;42.804;23.426;2023-03-05T08:01:03;73653.75;;;-140.58;86.50
17309;BME280;8772;42.804;23.426;2023-03-05T08:03:30;73627.09;;;-140.58;84.16
17309;BME280;8772;42.804;23.426;2023-03-05T08:05:58;73616.81;;;-140.58;84.10
17309;BME280;8772;42.804;23.426;2023-03-05T08:08:25;73592.22;;;-140.58;77.49
17309;BME280;8772;42.804;23.426;2023-03-05T08:10:52;73579.91;;;-140.58;78.05
17309;BME280;8772;42.804;23.426;2023-03-05T08:13:19;73569.66;;;-140.58;78.98
17309;BME280;8772;42.804;23.426;2023-03-05T08:15:46;73542.97;;;-140.58;77.66
17309;BME280;8772;42.804;23.426;2023-03-05T08:18:12;73522.47;;;-140.58;77.89
17309;BME280;8772;42.804;23.426;2023-03-05T08:20:43;73522.47;;;-140.58;76.11
17309;BME280;8772;42.804;23.426;2023-03-05T08:23:11;73510.16;;;-140.58;73.00
17309;BME280;8772;42.804;23.426;2023-03-05T08:25:38;73489.66;;;-140.58;71.10
17309;BME280;8772;42.804;23.426;2023-03-05T08:28:04;73495.81;;;-140.58;73.51
17309;BME280;8772;42.804;23.426;2023-03-05T08:30:31;73473.25;;;-140.58;73.01
17309;BME280;8772;42.804;23.426;2023-03-05T08:32:58;73456.81;;;-140.58;72.28
17309;BME280;8772;42.804;23.426;2023-03-05T08:35:25;73460.94;;;-140.58;68.76
17309;BME280;8772;42.804;23.426;2023-03-05T08:37:52;73430.16;;;-140.58;69.45
17309;BME280;8772;42.804;23.426;2023-03-05T08:40:20;73411.69;;;-140.58;72.42
17309;BME280;8772;42.804;23.426;2023-03-05T08:42:48;73378.88;;;-140.58;71.95
17309;BME280;8772;42.804;23.426;2023-03-05T08:45:16;73350.16;;;-140.58;69.06
17309;BME280;8772;42.804;23.426;2023-03-05T08:47:43;73309.13;;;-140.58;65.12
17309;BME280;8772;42.804;23.426;2023-03-05T08:50:11;73294.78;;;-140.58;65.48
17309;BME280;8772;42.804;23.426;2023-03-05T08:52:38;73247.59;;;-140.58;55.09
17309;BME280;8772;42.804;23.426;2023-03-05T08:55:05;73218.91;;;-140.58;51.75
17309;BME280;8772;42.804;23.426;2023-03-05T08:57:33;73181.97;;;-140.58;50.00
17309;BME280;8772;42.804;23.426;2023-03-05T09:00:00;73165.56;;;-140.58;50.61
17309;BME280;8772;42.804;23.426;2023-03-05T09:02:27;73130.69;;;-140.58;51.42
17309;BME280;8772;42.804;23.426;2023-03-05T09:04:54;73095.81;;;-140.58;49.37
17309;BME280;8772;42.804;23.426;2023-03-05T09:07:21;73112.25;;;-140.58;46.93
17309;BME280;8772;42.804;23.426;2023-03-05T09:09:48;73091.72;;;-140.58;46.46
17309;BME280;8772;42.804;23.426;2023-03-05T09:12:15;73095.81;;;-140.58;47.75
17309;BME280;8772;42.804;23.426;2023-03-05T09:14:43;73099.94;;;-140.58;46.47
17309;BME280;8772;42.804;23.426;2023-03-05T09:17:10;73101.97;;;-140.58;47.59
17309;BME280;8772;42.804;23.426;2023-03-05T09:19:37;73089.69;;;-140.58;47.64
17309;BME280;8772;42.804;23.426;2023-03-05T09:22:04;73091.72;;;-140.58;48.97
17309;BME280;8772;42.804;23.426;2023-03-05T09:24:31;73079.41;;;-140.58;47.10
17309;BME280;8772;42.804;23.426;2023-03-05T09:26:58;73101.97;;;-140.58;48.07
17309;BME280;8772;42.804;23.426;2023-03-05T09:29:25;73116.34;;;-140.58;46.97
17309;BME280;8772;42.804;23.426;2023-03-05T09:31:54;73112.25;;;-140.58;45.42
17309;BME280;8772;42.804;23.426;2023-03-05T09:34:21;73116.34;;;-140.58;47.39
17309;BME280;8772;42.804;23.426;2023-03-05T09:36:48;73097.88;;;-140.58;47.96
17309;BME280;8772;42.804;23.426;2023-03-05T09:39:15;73095.81;;;-140.58;47.42
17309;BME280;8772;42.804;23.426;2023-03-05T09:42:03;73087.63;;;-140.58;48.17
17309;BME280;8772;42.804;23.426;2023-03-05T09:44:43;73112.25;;;-140.58;46.84
17309;BME280;8772;42.804;23.426;2023-03-05T09:47:25;73087.63;;;-140.58;47.65
17309;BME280;8772;42.804;23.426;2023-03-05T09:49:57;73077.38;;;-140.58;47.17
17309;BME280;8772;42.804;23.426;2023-03-05T09:52:33;73067.13;;;-140.58;47.29
17309;BME280;8772;42.804;23.426;2023-03-05T09:55:02;73079.41;;;-140.58;46.26
17309;BME280;8772;42.804;23.426;2023-03-05T09:57:35;73087.63;;;-140.58;45.66
17309;BME280;8772;42.804;23.426;2023-03-05T10:00:11;73079.41;;;-140.58;46.09
17309;BME280;8772;42.804;23.426;2023-03-05T10:02:51;73067.13;;;-140.58;46.48
17309;BME280;8772;42.804;23.426;2023-03-05T10:05:27;73067.13;;;-140.58;44.94
17309;BME280;8772;42.804;23.426;2023-03-05T10:07:59;73073.28;;;-140.58;45.40
17309;BME280;8772;42.804;23.426;2023-03-05T10:10:35;73110.19;;;-140.58;46.13
17309;BME280;8772;42.804;23.426;2023-03-05T10:13:12;73114.28;;;-140.58;46.68
17309;BME280;8772;42.804;23.426;2023-03-05T10:15:46;73130.69;;;-140.58;46.90
17309;BME280;8772;42.804;23.426;2023-03-05T10:18:22;73145.06;;;-140.58;46.65
17309;BME280;8772;42.804;23.426;2023-03-05T10:20:58;73124.53;;;-140.58;47.23
17309;BME280;8772;42.804;23.426;2023-03-05T10:23:30;73116.34;;;-140.58;46.88
17309;BME280;8772;42.804;23.426;2023-03-05T10:26:17;73108.13;;;-140.58;46.97
17309;BME280;8772;42.804;23.426;2023-03-05T10:28:53;73120.44;;;-140.58;47.16
17309;BME280;8772;42.804;23.426;2023-03-05T10:31:55;73124.53;;;-140.58;45.79
17309;BME280;8772;42.804;23.426;2023-03-05T10:34:43;73128.66;;;-140.58;47.31
17309;BME280;8772;42.804;23.426;2023-03-05T10:37:41;73124.53;;;-140.58;47.39
17309;BME280;8772;42.804;23.426;2023-03-05T10:40:17;73104.03;;;-140.58;47.16
17309;BME280;8772;42.804;23.426;2023-03-05T10:42:52;73104.03;;;-140.58;46.73
17309;BME280;8772;42.804;23.426;2023-03-05T10:45:23;73114.28;;;-140.58;46.46
17309;BME280;8772;42.804;23.426;2023-03-05T10:47:55;73112.25;;;-140.58;46.56
17309;BME280;8772;42.804;23.426;2023-03-05T10:50:28;73112.25;;;-140.58;47.16
17309;BME280;8772;42.804;23.426;2023-03-05T10:53:06;73108.13;;;-140.58;47.01
17309;BME280;8772;42.804;23.426;2023-03-05T10:55:39;73106.09;;;-140.58;47.10
17309;BME280;8772;42.804;23.426;2023-03-05T10:58:10;73087.63;;;-140.58;46.61
17309;BME280;8772;42.804;23.426;2023-03-05T11:00:39;73083.53;;;-140.58;46.17
17309;BME280;8772;42.804;23.426;2023-03-05T11:03:07;73091.72;;;-140.58;45.29
17309;BME280;8772;42.804;23.426;2023-03-05T11:05:47;73095.81;;;-140.58;45.92
17309;BME280;8772;42.804;23.426;2023-03-05T11:08:32;73075.31;;;-140.58;44.67
17309;BME280;8772;42.804;23.426;2023-03-05T11:11:09;73071.22;;;-140.58;46.08
17309;BME280;8772;42.804;23.426;2023-03-05T11:13:42;73063.00;;;-140.58;44.42
17309;BME280;8772;42.804;23.426;2023-03-05T11:16:16;73058.91;;;-140.58;45.82
17309;BME280;8772;42.804;23.426;2023-03-05T11:18:44;73046.59;;;-140.58;44.92
17309;BME280;8772;42.804;23.426;2023-03-05T11:21:18;73052.75;;;-140.58;44.70
17309;BME280;8772;42.804;23.426;2023-03-05T11:24:03;73063.00;;;-140.58;44.87
17309;BME280;8772;42.804;23.426;2023-03-05T11:26:30;73067.13;;;-140.58;44.14
17309;BME280;8772;42.804;23.426;2023-03-05T11:28:58;73060.97;;;-140.58;44.32
17309;BME280;8772;42.804;23.426;2023-03-05T11:31:27;73054.81;;;-140.58;44.40
17309;BME280;8772;42.804;23.426;2023-03-05T11:34:00;73032.25;;;-140.58;44.55
17309;BME280;8772;42.804;23.426;2023-03-05T11:36:30;73034.31;;;-140.58;43.50
17309;BME280;8772;42.804;23.426;2023-03-05T11:39:01;73022.00;;;-140.58;43.92
17309;BME280;8772;42.804;23.426;2023-03-05T11:41:37;73024.03;;;-140.58;43.71
17309;BME280;8772;42.804;23.426;2023-03-05T11:44:10;73026.09;;;-140.58;43.45
17309;BME280;8772;42.804;23.426;2023-03-05T11:46:43;73015.84;;;-140.58;43.92
17309;BME280;8772;42.804;23.426;2023-03-05T11:49:14;73024.03;;;-140.58;43.02
17309;BME280;8772;42.804;23.426;2023-03-05T11:51:50;73022.00;;;-140.58;44.72
17309;BME280;8772;42.804;23.426;2023-03-05T11:54:23;73032.25;;;-140.58;43.57
17309;BME280;8772;42.804;23.426;2023-03-05T11:56:52;73015.84;;;-140.58;43.08
17309;BME280;8772;42.804;23.426;2023-03-05T11:59:22;73024.03;;;-140.58;43.02
17309;BME280;8772;42.804;23.426;2023-03-05T12:01:53;73036.34;;;-140.58;43.82
17309;BME280;8772;42.804;23.426;2023-03-05T12:04:21;73050.72;;;-140.58;43.29
17309;BME280;8772;42.804;23.426;2023-03-05T12:06:51;73060.97;;;-140.58;43.70
17309;BME280;8772;42.804;23.426;2023-03-05T12:09:22;73030.19;;;-140.58;43.48
17309;BME280;8772;42.804;23.426;2023-03-05T12:11:55;73046.59;;;-140.58;43.64
17309;BME280;8772;42.804;23.426;2023-03-05T12:14:29;73085.56;;;-140.58;44.34
17309;BME280;8772;42.804;23.426;2023-03-05T12:17:05;73067.13;;;-140.58;44.10
17309;BME280;8772;42.804;23.426;2023-03-05T12:19:40;73063.00;;;-140.58;45.14
17309;BME280;8772;42.804;23.426;2023-03-05T12:22:19;73048.66;;;-140.58;44.17
17309;BME280;8772;42.804;23.426;2023-03-05T12:24:46;73032.25;;;-140.58;44.29
17309;BME280;8772;42.804;23.426;2023-03-05T12:27:16;73022.00;;;-140.58;44.05
17309;BME280;8772;42.804;23.426;2023-03-05T12:29:57;73050.72;;;-140.58;44.97
17309;BME280;8772;42.804;23.426;2023-03-05T12:32:57;73034.31;;;-140.58;45.03
17309;BME280;8772;42.804;23.426;2023-03-05T12:35:30;73015.84;;;-140.58;43.22
17309;BME280;8772;42.804;23.426;2023-03-05T12:38:16;73005.59;;;-140.58;43.33
17309;BME280;8772;42.804;23.426;2023-03-05T12:40:44;72995.34;;;-140.58;44.09
17309;BME280;8772;42.804;23.426;2023-03-05T12:43:32;72993.28;;;-140.58;43.69
17309;BME280;8772;42.804;23.426;2023-03-05T12:46:22;72972.78;;;-140.58;44.49
17309;BME280;8772;42.804;23.426;2023-03-05T12:48:49;72968.66;;;-140.58;43.75
17309;BME280;8772;42.804;23.426;2023-03-05T12:51:34;72944.06;;;-140.58;43.04